createdAt,value
2022-09-09T00:00:28.850Z,97496.50
2022-09-09T00:05:39.448Z,97491.72
2022-09-09T00:10:42.702Z,97492.56
2022-09-09T00:15:54.161Z,97493.38
2022-09-09T00:21:07.008Z,97480.69
2022-09-09T00:26:29.882Z,97493.16
2022-09-09T00:31:32.287Z,97490.53
2022-09-09T00:36:35.410Z,97482.31
2022-09-09T00:41:39.889Z,97482.63
2022-09-09T00:46:48.486Z,97470.09
2022-09-09T00:52:05.495Z,97483.22
2022-09-09T00:57:14.809Z,97487.19
2022-09-09T01:02:26.607Z,97493.03
2022-09-09T01:07:28.361Z,97483.78
2022-09-09T01:12:42.653Z,97492.13
2022-09-09T01:17:49.778Z,97493.41
2022-09-09T01:23:04.907Z,97491.16
2022-09-09T01:28:11.152Z,97487.88
2022-09-09T01:33:17.253Z,97482.47
2022-09-09T01:38:18.886Z,97472.50
2022-09-09T01:43:26.307Z,97475.00
2022-09-09T01:48:28.295Z,97470.19
2022-09-09T01:53:40.163Z,97470.78
2022-09-09T01:58:45.103Z,97468.69
2022-09-09T02:03:52.807Z,97466.56
2022-09-09T02:09:00.523Z,97467.41
2022-09-09T02:14:03.943Z,97474.63
2022-09-09T02:19:18.028Z,97468.44
2022-09-09T02:24:35.035Z,97477.78
2022-09-09T02:29:57.711Z,97483.19
2022-09-09T02:35:12.717Z,97472.41
2022-09-09T02:40:18.483Z,97472.41
2022-09-09T02:45:32.987Z,97476.75
2022-09-09T02:50:35.907Z,97480.28
2022-09-09T02:55:51.721Z,97482.16
2022-09-09T03:00:58.301Z,97478.66
2022-09-09T03:06:01.803Z,97468.69
2022-09-09T03:11:03.950Z,97478.41
2022-09-09T03:16:08.586Z,97481.09
2022-09-09T03:21:16.393Z,97480.88
2022-09-09T03:26:18.734Z,97482.72
2022-09-09T03:31:22.115Z,97481.91
2022-09-09T03:36:23.675Z,97476.16
2022-09-09T03:41:25.860Z,97472.66
2022-09-09T03:46:27.739Z,97478.25
2022-09-09T03:51:29.779Z,97478.75
2022-09-09T03:56:32.669Z,97476.28
2022-09-09T04:01:35.081Z,97477.69
2022-09-09T04:06:36.993Z,97466.91
2022-09-09T04:11:38.601Z,97482.84
2022-09-09T04:16:40.135Z,97487.41
2022-09-09T04:21:43.071Z,97483.19
2022-09-09T04:26:44.701Z,97474.44
2022-09-09T04:31:46.223Z,97476.41
2022-09-09T04:36:50.099Z,97486.72
2022-09-09T04:41:51.527Z,97491.66
2022-09-09T04:46:54.148Z,97487.47
2022-09-09T04:51:56.493Z,97483.25
2022-09-09T04:56:57.960Z,97484.41
2022-09-09T05:02:00.106Z,97483.13
2022-09-09T05:07:01.539Z,97486.41
2022-09-09T05:12:03.785Z,97497.94
2022-09-09T05:17:09.357Z,97489.72
2022-09-09T05:22:13.213Z,97493.16
2022-09-09T05:27:23.409Z,97500.78
2022-09-09T05:32:25.490Z,97508.63
2022-09-09T05:37:27.400Z,97520.84
2022-09-09T05:42:33.419Z,97511.34
2022-09-09T05:47:36.530Z,97521.28
2022-09-09T05:52:38.095Z,97530.66
2022-09-09T05:57:40.798Z,97531.94
2022-09-09T06:02:43.028Z,97530.53
2022-09-09T06:07:47.969Z,97537.56
2022-09-09T06:12:49.728Z,97538.84
2022-09-09T06:17:55.154Z,97540.59
2022-09-09T06:22:56.569Z,97545.88
2022-09-09T06:27:58.626Z,97546.09
2022-09-09T06:33:00.255Z,97546.31
2022-09-09T06:38:02.323Z,97541.91
2022-09-09T06:43:03.919Z,97539.75
2022-09-09T06:48:13.857Z,97547.56
2022-09-09T06:53:17.510Z,97541.81
2022-09-09T06:58:19.584Z,97546.00
2022-09-09T07:03:21.071Z,97544.09
2022-09-09T07:08:23.131Z,97538.63
2022-09-09T07:13:28.121Z,97544.19
2022-09-09T07:18:31.397Z,97540.88
2022-09-09T07:23:36.326Z,97532.41
2022-09-09T07:28:39.085Z,97534.44
2022-09-09T07:33:41.794Z,97535.75
2022-09-09T07:38:48.528Z,97548.41
2022-09-09T07:43:50.815Z,97543.50
2022-09-09T07:48:53.788Z,97547.53
2022-09-09T07:54:01.194Z,97554.00
2022-09-09T07:59:05.165Z,97558.97
2022-09-09T08:04:17.934Z,97562.50
2022-09-09T08:09:21.483Z,97556.50
2022-09-09T08:14:24.020Z,97566.41
2022-09-09T08:19:25.675Z,97566.56
2022-09-09T08:24:28.009Z,97570.50
2022-09-09T08:29:29.551Z,97577.31
2022-09-09T08:34:32.436Z,97574.66
2022-09-09T08:39:37.923Z,97578.22
2022-09-09T08:44:58.441Z,97567.78
2022-09-09T08:50:03.041Z,97581.19
2022-09-09T08:55:24.965Z,97585.63
2022-09-09T09:00:35.615Z,97588.91
2022-09-09T09:05:43.739Z,97592.69
2022-09-09T09:10:48.241Z,97591.06
2022-09-09T09:15:57.921Z,97601.34
2022-09-09T09:21:05.078Z,97592.94
2022-09-09T09:26:09.554Z,97593.78
2022-09-09T09:31:11.819Z,97595.47
2022-09-09T09:36:16.645Z,97595.88
2022-09-09T09:41:30.182Z,97599.00
2022-09-09T09:46:32.364Z,97593.06
2022-09-09T09:51:42.213Z,97592.31
2022-09-09T09:56:44.187Z,97586.63
2022-09-09T10:01:46.112Z,97590.50
2022-09-09T10:06:48.781Z,97576.94
2022-09-09T10:11:56.813Z,97581.03
2022-09-09T10:17:05.176Z,97580.75
2022-09-09T10:22:16.376Z,97576.16
2022-09-09T10:27:21.069Z,97571.22
2022-09-09T10:32:40.279Z,97562.25
2022-09-09T10:37:43.819Z,97563.34
2022-09-09T10:42:45.150Z,97560.63
2022-09-09T10:47:52.626Z,97544.78
2022-09-09T10:53:00.496Z,97544.25
2022-09-09T10:58:05.043Z,97544.25
2022-09-09T11:03:08.232Z,97545.63
2022-09-09T11:08:18.668Z,97536.63
2022-09-09T11:13:23.380Z,97535.03
2022-09-09T11:18:24.875Z,97540.44
2022-09-09T11:23:30.219Z,97547.53
2022-09-09T11:28:43.947Z,97542.34
2022-09-09T11:33:45.472Z,97542.09
2022-09-09T11:38:47.825Z,97539.94
2022-09-09T11:43:52.985Z,97519.75
2022-09-09T11:49:01.604Z,97527.38
2022-09-09T11:54:21.949Z,97522.75
2022-09-09T11:59:25.515Z,97530.09
2022-09-09T12:04:26.785Z,97511.00
2022-09-09T12:09:30.869Z,97521.91
2022-09-09T12:14:37.303Z,97516.50
2022-09-09T12:19:38.594Z,97508.28
2022-09-09T12:25:03.236Z,97502.56
2022-09-09T12:30:13.149Z,97499.81
2022-09-09T12:35:20.403Z,97497.94
2022-09-09T12:40:23.192Z,97489.16
2022-09-09T12:45:29.539Z,97485.84
2022-09-09T12:50:36.026Z,97496.00
2022-09-09T12:55:38.825Z,97487.81
2022-09-09T13:00:51.151Z,97484.19
2022-09-09T13:05:54.171Z,97473.00
2022-09-09T13:11:02.622Z,97478.16
2022-09-09T13:16:06.496Z,97474.56
2022-09-09T13:21:08.377Z,97466.81
2022-09-09T13:26:24.054Z,97468.41
2022-09-09T13:31:25.362Z,97467.66
2022-09-09T13:36:35.216Z,97472.84
2022-09-09T13:41:42.629Z,97472.09
2022-09-09T13:46:44.438Z,97473.78
2022-09-09T13:51:47.739Z,97476.97
2022-09-09T13:56:50.540Z,97473.25
2022-09-09T14:01:53.302Z,97470.06
2022-09-09T14:06:55.608Z,97478.28
2022-09-09T14:11:56.883Z,97479.63
2022-09-09T14:16:58.442Z,97469.53
2022-09-09T14:21:59.792Z,97458.63
2022-09-09T14:27:01.090Z,97455.91
2022-09-09T14:32:02.614Z,97449.59
2022-09-09T14:37:03.930Z,97456.97
2022-09-09T14:42:06.135Z,97450.88
2022-09-09T14:47:08.962Z,97438.75
2022-09-09T14:52:10.601Z,97438.75
2022-09-09T14:57:11.944Z,97436.69
2022-09-09T15:02:14.871Z,97436.88
2022-09-09T15:07:17.469Z,97440.09
2022-09-09T15:12:21.711Z,97442.56
2022-09-09T15:17:23.007Z,97435.56
2022-09-09T15:22:25.246Z,97440.72
2022-09-09T15:27:26.608Z,97451.13
2022-09-09T15:32:28.526Z,97449.78
2022-09-09T15:37:29.808Z,97439.75
2022-09-09T15:42:31.118Z,97439.00
2022-09-09T15:47:33.083Z,97441.78
2022-09-09T15:52:34.443Z,97434.16
2022-09-09T15:57:35.721Z,97439.06
2022-09-09T16:02:38.081Z,97446.13
2022-09-09T16:07:39.956Z,97429.28
2022-09-09T16:12:41.273Z,97429.63
2022-09-09T16:17:42.561Z,97430.97
2022-09-09T16:22:44.259Z,97439.69
2022-09-09T16:27:45.539Z,97447.56
2022-09-09T16:32:46.844Z,97445.94
2022-09-09T16:37:48.114Z,97446.72
2022-09-09T16:42:49.393Z,97446.72
2022-09-09T16:47:50.673Z,97449.47
2022-09-09T16:52:52.375Z,97458.19
2022-09-09T16:57:55.810Z,97468.00
2022-09-09T17:02:57.175Z,97475.09
2022-09-09T17:07:58.601Z,97473.75
2022-09-09T17:12:59.876Z,97475.09
2022-09-09T17:18:01.145Z,97477.25
2022-09-09T17:23:02.665Z,97475.31
2022-09-09T17:28:07.191Z,97485.81
2022-09-09T17:33:08.479Z,97486.56
2022-09-09T17:38:09.748Z,97493.28
2022-09-09T17:43:11.349Z,97486.13
2022-09-09T17:48:12.647Z,97500.34
2022-09-09T17:53:13.975Z,97509.16
2022-09-09T17:58:16.497Z,97513.38
2022-09-09T18:03:17.905Z,97513.03
2022-09-09T18:08:19.476Z,97526.81
2022-09-09T18:13:20.869Z,97525.69
2022-09-09T18:18:22.686Z,97533.25
2022-09-09T18:23:24.202Z,97526.94
2022-09-09T18:28:28.532Z,97532.31
2022-09-09T18:33:30.930Z,97537.66
2022-09-09T18:38:33.989Z,97529.72
2022-09-09T18:43:35.424Z,97526.97
2022-09-09T18:48:37.386Z,97535.03
2022-09-09T18:53:39.370Z,97538.53
2022-09-09T18:58:40.859Z,97540.06
2022-09-09T19:03:42.604Z,97541.44
2022-09-09T19:08:44.614Z,97539.22
2022-09-09T19:13:53.057Z,97546.78
2022-09-09T19:18:55.088Z,97545.00
2022-09-09T19:24:01.016Z,97550.94
2022-09-09T19:29:02.627Z,97553.59
2022-09-09T19:34:04.244Z,97542.44
2022-09-09T19:39:06.242Z,97552.41
2022-09-09T19:44:11.833Z,97558.56
2022-09-09T19:49:15.063Z,97553.91
2022-09-09T19:54:16.453Z,97550.06
2022-09-09T19:59:18.067Z,97548.91
2022-09-09T20:04:19.540Z,97564.00
2022-09-09T20:09:21.330Z,97549.06
2022-09-09T20:14:22.599Z,97555.56
2022-09-09T20:19:24.062Z,97554.47
2022-09-09T20:24:26.103Z,97563.19
2022-09-09T20:29:27.412Z,97566.94
2022-09-09T20:34:29.878Z,97581.25
2022-09-09T20:39:31.597Z,97574.19
2022-09-09T20:44:33.278Z,97581.25
2022-09-09T20:49:37.784Z,97583.69
2022-09-09T20:54:40.509Z,97580.75
2022-09-09T20:59:43.228Z,97586.41
2022-09-09T21:04:47.516Z,97584.53
2022-09-09T21:09:48.784Z,97584.25
2022-09-09T21:14:51.530Z,97586.97
2022-09-09T21:19:56.378Z,97594.78
2022-09-09T21:24:58.810Z,97589.88
2022-09-09T21:30:00.110Z,97596.34
2022-09-09T21:35:01.385Z,97597.09
2022-09-09T21:40:02.966Z,97604.88
2022-09-09T21:45:05.311Z,97596.69
2022-09-09T21:50:06.673Z,97590.13
2022-09-09T21:55:08.994Z,97592.25
2022-09-09T22:00:18.188Z,97589.22
2022-09-09T22:05:19.481Z,97594.91
2022-09-09T22:10:21.525Z,97590.78
2022-09-09T22:15:22.791Z,97584.78
2022-09-09T22:20:24.965Z,97589.06
2022-09-09T22:25:26.503Z,97582.75
2022-09-09T22:30:28.549Z,97583.22
2022-09-09T22:35:29.880Z,97582.66
2022-09-09T22:40:31.184Z,97574.19
2022-09-09T22:45:33.043Z,97564.72
2022-09-09T22:50:37.891Z,97564.63
2022-09-09T22:55:54.294Z,97558.28
2022-09-09T23:00:59.072Z,97552.38
2022-09-09T23:06:01.245Z,97553.13
2022-09-09T23:11:08.876Z,97548.50
2022-09-09T23:16:11.262Z,97553.31
2022-09-09T23:21:13.224Z,97552.53
2022-09-09T23:26:19.006Z,97547.25
2022-09-09T23:31:22.809Z,97543.16
2022-09-09T23:36:29.528Z,97548.81
2022-09-09T23:41:31.409Z,97555.72
2022-09-09T23:46:33.432Z,97553.91
2022-09-09T23:51:35.352Z,97563.72
2022-09-09T23:56:41.187Z,97554.38
